createdAt,value
2022-12-20T00:00:51.438Z,8.40
2022-12-20T00:03:18.112Z,8.38
2022-12-20T00:05:44.590Z,8.40
2022-12-20T00:08:11.346Z,8.38
2022-12-20T00:10:39.356Z,8.38
2022-12-20T00:13:05.997Z,8.38
2022-12-20T00:15:33.084Z,8.41
2022-12-20T00:18:00.228Z,8.41
2022-12-20T00:20:28.094Z,8.45
2022-12-20T00:22:54.533Z,8.50
2022-12-20T00:25:21.510Z,8.52
2022-12-20T00:27:48.903Z,8.54
2022-12-20T00:30:16.382Z,8.57
2022-12-20T00:32:43.875Z,8.55
2022-12-20T00:35:11.707Z,8.57
2022-12-20T00:37:38.268Z,8.62
2022-12-20T00:40:06.863Z,8.60
2022-12-20T00:42:33.292Z,8.61
2022-12-20T00:44:59.666Z,8.66
2022-12-20T00:47:26.042Z,8.68
2022-12-20T00:49:52.389Z,8.71
2022-12-20T00:52:18.771Z,8.76
2022-12-20T00:54:45.111Z,8.76
2022-12-20T00:57:11.505Z,8.79
2022-12-20T00:59:37.841Z,8.81
2022-12-20T01:02:04.425Z,8.83
2022-12-20T01:04:30.859Z,8.86
2022-12-20T01:06:57.229Z,8.88
2022-12-20T01:09:23.589Z,8.84
2022-12-20T01:11:49.934Z,8.83
2022-12-20T01:14:16.800Z,8.85
2022-12-20T01:16:45.413Z,8.86
2022-12-20T01:19:14.991Z,8.86
2022-12-20T01:21:44.887Z,8.88
2022-12-20T01:24:13.627Z,8.89
2022-12-20T01:26:40.345Z,8.89
2022-12-20T01:29:06.788Z,8.85
2022-12-20T01:31:33.847Z,8.82
2022-12-20T01:34:00.837Z,8.78
2022-12-20T01:36:31.160Z,8.76
2022-12-20T01:38:59.049Z,8.74
2022-12-20T01:41:25.746Z,8.72
2022-12-20T01:44:00.398Z,8.69
2022-12-20T01:46:29.759Z,8.65
2022-12-20T01:49:06.186Z,8.60
2022-12-20T01:51:35.879Z,8.56
2022-12-20T01:54:07.639Z,8.52
2022-12-20T01:56:34.950Z,8.51
2022-12-20T01:59:01.982Z,8.51
2022-12-20T02:01:28.534Z,8.50
2022-12-20T02:03:56.067Z,8.48
2022-12-20T02:06:25.960Z,8.47
2022-12-20T02:08:57.388Z,8.42
2022-12-20T02:11:41.042Z,8.39
2022-12-20T02:14:26.045Z,8.37
2022-12-20T02:17:19.330Z,8.35
2022-12-20T02:20:00.371Z,8.35
2022-12-20T02:22:31.209Z,8.35
2022-12-20T02:25:26.809Z,8.35
2022-12-20T02:28:01.254Z,8.36
2022-12-20T02:30:37.987Z,8.35
2022-12-20T02:33:08.432Z,8.34
2022-12-20T02:35:37.502Z,8.35
2022-12-20T02:38:25.617Z,8.38
2022-12-20T02:41:06.492Z,8.37
2022-12-20T02:43:54.619Z,8.37
2022-12-20T02:46:23.825Z,8.38
2022-12-20T02:48:53.214Z,8.37
2022-12-20T02:51:23.364Z,8.37
2022-12-20T02:53:50.384Z,8.36
2022-12-20T02:56:23.129Z,8.37
2022-12-20T02:58:53.766Z,8.36
2022-12-20T03:01:26.536Z,8.35
2022-12-20T03:03:54.381Z,8.36
2022-12-20T03:06:21.321Z,8.36
2022-12-20T03:08:47.670Z,8.36
2022-12-20T03:11:14.360Z,8.37
2022-12-20T03:13:40.736Z,8.37
2022-12-20T03:16:07.296Z,8.35
2022-12-20T03:18:33.671Z,8.36
2022-12-20T03:21:00.092Z,8.35
2022-12-20T03:23:26.477Z,8.35
2022-12-20T03:25:52.953Z,8.33
2022-12-20T03:28:19.325Z,8.33
2022-12-20T03:30:47.041Z,8.32
2022-12-20T03:33:13.545Z,8.32
2022-12-20T03:35:40.245Z,8.33
2022-12-20T03:38:06.945Z,8.36
2022-12-20T03:40:33.559Z,8.37
2022-12-20T03:42:59.902Z,8.39
2022-12-20T03:45:26.256Z,8.40
2022-12-20T03:47:52.597Z,8.42
2022-12-20T03:50:19.105Z,8.43
2022-12-20T03:52:45.501Z,8.44
2022-12-20T03:55:12.639Z,8.46
2022-12-20T03:57:39.984Z,8.46
2022-12-20T04:00:07.031Z,8.47
2022-12-20T04:02:33.639Z,8.49
2022-12-20T04:05:00.161Z,8.50
2022-12-20T04:07:26.559Z,8.52
2022-12-20T04:09:52.895Z,8.53
2022-12-20T04:12:19.272Z,8.53
2022-12-20T04:14:45.611Z,8.56
2022-12-20T04:17:11.995Z,8.58
2022-12-20T04:19:38.353Z,8.59
2022-12-20T04:22:06.249Z,8.60
2022-12-20T04:24:32.871Z,8.64
2022-12-20T04:26:59.216Z,8.68
2022-12-20T04:29:25.565Z,8.71
2022-12-20T04:31:51.944Z,8.71
2022-12-20T04:34:18.423Z,8.76
2022-12-20T04:36:44.777Z,8.76
2022-12-20T04:39:11.176Z,8.77
2022-12-20T04:41:37.542Z,8.79
2022-12-20T04:44:03.953Z,8.83
2022-12-20T04:46:30.404Z,8.85
2022-12-20T04:48:58.749Z,8.86
2022-12-20T04:51:26.267Z,8.89
2022-12-20T04:53:52.724Z,8.93
2022-12-20T04:56:22.322Z,8.93
2022-12-20T04:58:50.671Z,8.95
2022-12-20T05:01:17.693Z,8.98
2022-12-20T05:03:44.528Z,8.99
2022-12-20T05:06:11.331Z,8.99
2022-12-20T05:08:38.452Z,8.98
2022-12-20T05:11:06.027Z,8.97
2022-12-20T05:13:32.873Z,8.95
2022-12-20T05:15:59.725Z,8.94
2022-12-20T05:18:27.837Z,8.93
2022-12-20T05:21:17.256Z,8.94
2022-12-20T05:24:01.990Z,8.94
2022-12-20T05:26:31.745Z,8.93
2022-12-20T05:28:58.227Z,8.95
2022-12-20T05:31:24.665Z,8.93
2022-12-20T05:33:51.196Z,8.93
2022-12-20T05:36:18.202Z,8.92
2022-12-20T05:38:44.600Z,8.93
2022-12-20T05:41:10.944Z,8.95
2022-12-20T05:43:37.320Z,8.95
2022-12-20T05:46:03.741Z,8.95
2022-12-20T05:48:30.182Z,8.96
2022-12-20T05:50:56.689Z,8.96
2022-12-20T05:53:23.616Z,8.98
2022-12-20T05:55:51.549Z,8.97
2022-12-20T05:58:18.619Z,8.98
2022-12-20T06:00:45.143Z,8.99
2022-12-20T06:03:12.009Z,8.99
2022-12-20T06:05:39.309Z,8.99
2022-12-20T06:08:06.414Z,9.00
2022-12-20T06:10:34.716Z,9.01
2022-12-20T06:13:02.355Z,9.01
2022-12-20T06:15:29.327Z,9.03
2022-12-20T06:17:55.850Z,9.03
2022-12-20T06:20:22.443Z,9.05
2022-12-20T06:22:48.939Z,9.09
2022-12-20T06:25:15.763Z,9.08
2022-12-20T06:27:42.896Z,9.10
2022-12-20T06:30:10.601Z,9.13
2022-12-20T06:32:37.026Z,9.15
2022-12-20T06:35:03.526Z,9.16
2022-12-20T06:37:30.088Z,9.22
2022-12-20T06:39:56.462Z,9.22
2022-12-20T06:42:22.839Z,9.24
2022-12-20T06:44:49.679Z,9.23
2022-12-20T06:47:16.260Z,9.24
2022-12-20T06:49:42.753Z,9.25
2022-12-20T06:52:10.375Z,9.27
2022-12-20T06:54:36.739Z,9.27
2022-12-20T06:57:03.297Z,9.29
2022-12-20T06:59:29.681Z,9.27
2022-12-20T07:01:56.323Z,9.27
2022-12-20T07:04:22.892Z,9.28
2022-12-20T07:06:49.309Z,9.28
2022-12-20T07:09:16.864Z,9.28
2022-12-20T07:11:43.344Z,9.28
2022-12-20T07:14:10.139Z,9.32
2022-12-20T07:16:37.774Z,9.34
2022-12-20T07:19:04.236Z,9.36
2022-12-20T07:21:30.670Z,9.41
2022-12-20T07:23:57.112Z,9.44
2022-12-20T07:26:23.587Z,9.44
2022-12-20T07:28:49.962Z,9.44
2022-12-20T07:31:16.364Z,9.48
2022-12-20T07:33:42.786Z,9.49
2022-12-20T07:36:12.531Z,9.52
2022-12-20T07:38:38.975Z,9.56
2022-12-20T07:41:14.103Z,9.56
2022-12-20T07:43:40.997Z,9.58
2022-12-20T07:46:08.674Z,9.58
2022-12-20T07:48:36.177Z,9.59
2022-12-20T07:51:21.403Z,9.56
2022-12-20T07:53:59.138Z,9.54
2022-12-20T07:56:26.852Z,9.51
2022-12-20T07:58:58.511Z,9.49
2022-12-20T08:01:27.527Z,9.47
2022-12-20T08:04:11.270Z,9.44
2022-12-20T08:06:40.495Z,9.46
2022-12-20T08:09:07.017Z,9.44
2022-12-20T08:11:36.253Z,9.43
2022-12-20T08:14:04.503Z,9.43
2022-12-20T08:16:31.242Z,9.47
2022-12-20T08:18:57.655Z,9.44
2022-12-20T08:21:24.054Z,9.43
2022-12-20T08:23:50.460Z,9.42
2022-12-20T08:26:17.529Z,9.41
2022-12-20T08:28:44.335Z,9.40
2022-12-20T08:31:12.670Z,9.42
2022-12-20T08:33:40.336Z,9.42
2022-12-20T08:36:09.818Z,9.39
2022-12-20T08:38:36.892Z,9.38
2022-12-20T08:41:05.516Z,9.40
2022-12-20T08:43:32.903Z,9.39
2022-12-20T08:45:59.725Z,9.38
2022-12-20T08:48:26.846Z,9.37
2022-12-20T08:51:02.267Z,9.40
2022-12-20T08:53:30.082Z,9.42
2022-12-20T08:56:07.907Z,9.39
2022-12-20T08:58:35.340Z,9.38
2022-12-20T09:01:06.650Z,9.39
2022-12-20T09:03:34.524Z,9.37
2022-12-20T09:06:01.070Z,9.34
2022-12-20T09:08:27.919Z,9.31
2022-12-20T09:10:54.387Z,9.29
2022-12-20T09:13:21.630Z,9.27
2022-12-20T09:15:50.172Z,9.26
2022-12-20T09:18:18.638Z,9.25
2022-12-20T09:20:47.786Z,9.25
2022-12-20T09:23:14.282Z,9.25
2022-12-20T09:25:40.690Z,9.23
2022-12-20T09:28:11.263Z,9.21
2022-12-20T09:30:37.681Z,9.22
2022-12-20T09:33:09.553Z,9.20
2022-12-20T09:35:37.141Z,9.22
2022-12-20T09:38:05.746Z,9.20
2022-12-20T09:40:32.705Z,9.18
2022-12-20T09:42:59.242Z,9.19
2022-12-20T09:45:29.679Z,9.19
2022-12-20T09:47:56.048Z,9.19
2022-12-20T09:50:37.910Z,9.16
2022-12-20T09:53:24.541Z,9.15
2022-12-20T09:55:56.411Z,9.13
2022-12-20T09:58:56.169Z,9.11
2022-12-20T10:01:27.760Z,9.11
2022-12-20T10:04:29.640Z,9.10
2022-12-20T10:07:14.588Z,9.11
2022-12-20T10:09:59.230Z,9.11
2022-12-20T10:12:54.162Z,9.10
2022-12-20T10:15:29.124Z,9.12
2022-12-20T10:18:12.753Z,9.12
2022-12-20T10:20:39.186Z,9.12
2022-12-20T10:23:33.398Z,9.12
2022-12-20T10:26:00.645Z,9.13
2022-12-20T10:28:35.746Z,9.16
2022-12-20T10:31:05.274Z,9.16
2022-12-20T10:33:34.731Z,9.16
2022-12-20T10:36:27.030Z,9.18
2022-12-20T10:38:56.969Z,9.19
2022-12-20T10:41:52.140Z,9.19
2022-12-20T10:44:23.627Z,9.19
2022-12-20T10:46:56.054Z,9.19
2022-12-20T10:49:49.575Z,9.20
2022-12-20T10:52:21.072Z,9.20
2022-12-20T10:54:54.459Z,9.21
2022-12-20T10:57:29.755Z,9.22
2022-12-20T11:00:06.200Z,9.20
2022-12-20T11:02:41.680Z,9.21
2022-12-20T11:05:12.281Z,9.22
2022-12-20T11:10:44.339Z,9.24
2022-12-20T11:13:26.272Z,9.24
2022-12-20T11:16:01.622Z,9.26
2022-12-20T11:18:40.507Z,9.24
2022-12-20T11:21:12.731Z,9.24
2022-12-20T11:23:48.470Z,9.25
2022-12-20T11:26:39.702Z,9.25
2022-12-20T11:29:21.702Z,9.26
2022-12-20T11:32:07.062Z,9.27
2022-12-20T11:34:46.746Z,9.27
2022-12-20T11:37:26.419Z,9.29
2022-12-20T11:40:32.472Z,9.30
2022-12-20T11:43:04.900Z,9.31
2022-12-20T11:45:54.541Z,9.31
2022-12-20T11:48:39.570Z,9.29
2022-12-20T11:51:15.931Z,9.31
2022-12-20T11:53:52.624Z,9.30
2022-12-20T11:56:26.100Z,9.33
2022-12-20T11:59:02.342Z,9.33
2022-12-20T12:01:43.822Z,9.34
2022-12-20T12:04:17.357Z,9.35
2022-12-20T12:06:54.331Z,9.36
2022-12-20T12:09:27.849Z,9.36
2022-12-20T12:12:07.201Z,9.37
2022-12-20T12:14:56.679Z,9.35
2022-12-20T12:17:32.177Z,9.36
2022-12-20T12:20:15.704Z,9.36
2022-12-20T12:22:44.195Z,9.36
2022-12-20T12:25:17.265Z,9.36
2022-12-20T12:27:44.095Z,9.35
2022-12-20T12:30:15.867Z,9.38
2022-12-20T12:32:56.913Z,9.41
2022-12-20T12:35:41.954Z,9.40
2022-12-20T12:38:27.532Z,9.41
2022-12-20T12:41:30.090Z,9.44
2022-12-20T12:44:19.740Z,9.44
2022-12-20T12:46:53.996Z,9.45
2022-12-20T12:49:24.765Z,9.45
2022-12-20T12:51:55.687Z,9.47
2022-12-20T12:54:41.145Z,9.47
2022-12-20T12:57:25.783Z,9.48
2022-12-20T12:59:52.579Z,9.49
2022-12-20T13:02:23.823Z,9.46
2022-12-20T13:05:09.110Z,9.48
2022-12-20T13:07:35.513Z,9.48
2022-12-20T13:10:20.257Z,9.49
2022-12-20T13:12:56.437Z,9.50
2022-12-20T13:15:22.892Z,9.50
2022-12-20T13:17:51.261Z,9.50
2022-12-20T13:20:20.375Z,9.51
2022-12-20T13:23:13.080Z,9.51
2022-12-20T13:25:40.911Z,9.51
2022-12-20T13:28:19.570Z,9.51
2022-12-20T13:30:47.796Z,9.51
2022-12-20T13:33:41.744Z,9.51
2022-12-20T13:36:11.321Z,9.52
2022-12-20T13:38:39.998Z,9.51
2022-12-20T13:41:29.609Z,9.50
2022-12-20T13:44:15.959Z,9.51
2022-12-20T13:46:49.522Z,9.51
2022-12-20T13:49:25.539Z,9.51
2022-12-20T13:52:12.785Z,9.51
2022-12-20T13:54:45.656Z,9.52
2022-12-20T13:57:17.643Z,9.51
2022-12-20T13:59:57.270Z,9.52
2022-12-20T14:02:33.073Z,9.53
2022-12-20T14:05:21.754Z,9.54
2022-12-20T14:07:55.593Z,9.54
2022-12-20T14:10:26.465Z,9.54
2022-12-20T14:12:53.809Z,9.55
2022-12-20T14:15:24.658Z,9.54
2022-12-20T14:17:51.166Z,9.55
2022-12-20T14:20:30.503Z,9.55
2022-12-20T14:23:33.467Z,9.56
2022-12-20T14:26:01.845Z,9.57
2022-12-20T14:28:39.190Z,9.54
2022-12-20T14:31:07.942Z,9.55
2022-12-20T14:33:40.025Z,9.54
2022-12-20T14:36:19.149Z,9.53
2022-12-20T14:38:51.369Z,9.53
2022-12-20T14:41:29.027Z,9.55
2022-12-20T14:44:02.632Z,9.53
2022-12-20T14:46:30.979Z,9.52
2022-12-20T14:49:17.894Z,9.52
2022-12-20T14:51:45.480Z,9.52
2022-12-20T14:57:37.681Z,9.48
2022-12-20T15:00:19.316Z,9.48
2022-12-20T15:02:49.713Z,9.48
2022-12-20T15:05:38.708Z,9.45
2022-12-20T15:08:27.490Z,9.44
2022-12-20T15:11:09.564Z,9.45
2022-12-20T15:13:49.944Z,9.45
2022-12-20T15:16:21.704Z,9.45
2022-12-20T15:18:49.988Z,9.44
2022-12-20T15:21:33.368Z,9.45
2022-12-20T15:24:02.495Z,9.45
2022-12-20T15:26:31.098Z,9.44
2022-12-20T15:28:57.684Z,9.44
2022-12-20T15:31:32.429Z,9.44
2022-12-20T15:34:02.243Z,9.43
2022-12-20T15:36:31.192Z,9.43
2022-12-20T15:39:14.939Z,9.44
2022-12-20T15:41:46.156Z,9.44
2022-12-20T15:44:19.278Z,9.42
2022-12-20T15:46:45.767Z,9.41
2022-12-20T15:49:17.175Z,9.40
2022-12-20T15:51:46.674Z,9.39
2022-12-20T15:54:22.649Z,9.39
2022-12-20T15:56:49.036Z,9.38
2022-12-20T15:59:48.782Z,9.39
2022-12-20T16:02:02.479Z,9.37
2022-12-20T16:04:29.223Z,9.37
2022-12-20T16:06:55.875Z,9.37
2022-12-20T16:09:25.529Z,9.37
2022-12-20T16:11:52.403Z,9.36
2022-12-20T16:14:24.206Z,9.37
2022-12-20T16:16:50.945Z,9.37
2022-12-20T16:19:17.429Z,9.39
2022-12-20T16:21:45.886Z,9.38
2022-12-20T16:24:14.699Z,9.36
2022-12-20T16:26:41.134Z,9.36
2022-12-20T16:29:08.482Z,9.36
2022-12-20T16:31:42.423Z,9.36
2022-12-20T16:34:18.911Z,9.34
2022-12-20T16:36:46.724Z,9.34
2022-12-20T16:39:13.417Z,9.34
2022-12-20T16:41:42.065Z,9.34
2022-12-20T16:44:14.128Z,9.32
2022-12-20T16:46:40.765Z,9.33
2022-12-20T16:49:17.798Z,9.31
2022-12-20T16:51:48.398Z,9.34
2022-12-20T16:54:23.180Z,9.34
2022-12-20T16:56:56.666Z,9.35
2022-12-20T16:59:25.039Z,9.33
2022-12-20T17:01:54.350Z,9.32
2022-12-20T17:04:21.722Z,9.30
2022-12-20T17:06:48.573Z,9.30
2022-12-20T17:12:04.314Z,9.29
2022-12-20T17:14:31.020Z,9.27
2022-12-20T17:16:57.456Z,9.27
2022-12-20T17:19:23.929Z,9.27
2022-12-20T17:24:34.782Z,9.28
2022-12-20T17:27:01.190Z,9.28
2022-12-20T17:29:27.580Z,9.27
2022-12-20T17:31:54.108Z,9.25
2022-12-20T17:34:22.829Z,9.25
2022-12-20T17:36:51.024Z,9.24
2022-12-20T17:39:18.336Z,9.24
2022-12-20T17:41:45.379Z,9.25
2022-12-20T17:44:20.913Z,9.24
2022-12-20T17:46:48.049Z,9.23
2022-12-20T17:49:15.339Z,9.23
2022-12-20T17:51:42.671Z,9.23
2022-12-20T17:54:17.904Z,9.23
2022-12-20T17:56:44.687Z,9.22
2022-12-20T17:59:12.813Z,9.23
2022-12-20T18:01:39.620Z,9.22
2022-12-20T18:04:11.382Z,9.20
2022-12-20T18:06:42.599Z,9.20
2022-12-20T18:09:17.622Z,9.19
2022-12-20T18:11:44.655Z,9.18
2022-12-20T18:14:14.175Z,9.16
2022-12-20T18:16:40.758Z,9.15
2022-12-20T18:19:08.606Z,9.16
2022-12-20T18:21:35.035Z,9.14
2022-12-20T18:24:01.470Z,9.16
2022-12-20T18:26:30.610Z,9.15
2022-12-20T18:28:59.713Z,9.16
2022-12-20T18:31:28.711Z,9.14
2022-12-20T18:33:58.343Z,9.15
2022-12-20T18:36:28.932Z,9.13
2022-12-20T18:38:59.715Z,9.12
2022-12-20T18:41:29.673Z,9.12
2022-12-20T18:44:02.520Z,9.12
2022-12-20T18:46:29.467Z,9.13
2022-12-20T18:48:58.299Z,9.13
2022-12-20T18:51:33.180Z,9.13
2022-12-20T18:54:00.049Z,9.13
2022-12-20T18:56:31.614Z,9.13
2022-12-20T18:59:04.651Z,9.13
2022-12-20T19:01:37.496Z,9.12
2022-12-20T19:04:07.292Z,9.13
2022-12-20T19:06:36.964Z,9.11
2022-12-20T19:09:08.912Z,9.10
2022-12-20T19:11:37.195Z,9.11
2022-12-20T19:14:03.743Z,9.11
2022-12-20T19:16:32.563Z,9.11
2022-12-20T19:19:00.356Z,9.10
2022-12-20T19:21:31.416Z,9.12
2022-12-20T19:24:00.537Z,9.10
2022-12-20T19:26:29.650Z,9.09
2022-12-20T19:28:56.987Z,9.08
2022-12-20T19:31:25.722Z,9.07
2022-12-20T19:33:57.151Z,9.07
2022-12-20T19:36:27.449Z,9.09
2022-12-20T19:38:59.844Z,9.08
2022-12-20T19:41:29.247Z,9.08
2022-12-20T19:43:56.565Z,9.07
2022-12-20T19:46:29.810Z,9.05
2022-12-20T19:48:58.821Z,9.04
2022-12-20T19:51:27.034Z,9.03
2022-12-20T19:53:55.071Z,9.04
2022-12-20T19:56:25.157Z,9.04
2022-12-20T19:58:52.698Z,9.04
2022-12-20T20:01:21.344Z,9.04
2022-12-20T20:03:47.895Z,9.02
2022-12-20T20:06:14.389Z,9.03
2022-12-20T20:08:41.093Z,9.03
2022-12-20T20:11:10.055Z,9.04
2022-12-20T20:13:37.308Z,9.04
2022-12-20T20:16:07.297Z,9.04
2022-12-20T20:18:38.510Z,9.04
2022-12-20T20:21:21.038Z,9.01
2022-12-20T20:23:48.701Z,9.00
2022-12-20T20:26:17.661Z,9.00
2022-12-20T20:28:45.295Z,9.02
2022-12-20T20:31:13.864Z,9.01
2022-12-20T20:33:40.570Z,9.01
2022-12-20T20:36:07.449Z,9.00
2022-12-20T20:38:34.585Z,9.01
2022-12-20T20:41:01.000Z,9.01
2022-12-20T20:43:29.632Z,9.00
2022-12-20T20:45:56.595Z,8.99
2022-12-20T20:48:23.054Z,8.99
2022-12-20T20:50:49.440Z,8.99
2022-12-20T20:53:15.876Z,8.99
2022-12-20T20:55:42.742Z,9.00
2022-12-20T20:58:09.143Z,8.98
2022-12-20T21:00:35.726Z,8.97
2022-12-20T21:03:02.334Z,8.97
2022-12-20T21:06:14.099Z,8.96
2022-12-20T21:08:16.319Z,8.96
2022-12-20T21:10:43.086Z,8.96
2022-12-20T21:13:09.622Z,8.95
2022-12-20T21:19:46.246Z,8.95
2022-12-20T21:22:12.628Z,8.95
2022-12-20T21:24:39.021Z,8.94
2022-12-20T21:27:05.365Z,8.94
2022-12-20T21:29:31.859Z,8.95
2022-12-20T21:31:58.270Z,8.95
2022-12-20T21:34:24.734Z,8.93
2022-12-20T21:36:52.171Z,8.93
2022-12-20T21:39:18.794Z,8.92
2022-12-20T21:41:45.169Z,8.91
2022-12-20T21:44:11.897Z,8.89
2022-12-20T21:46:38.309Z,8.87
2022-12-20T21:49:04.757Z,8.86
2022-12-20T21:51:31.284Z,8.84
2022-12-20T21:54:02.221Z,8.84
2022-12-20T21:56:31.638Z,8.83
2022-12-20T21:58:58.451Z,8.81
2022-12-20T22:01:27.763Z,8.82
2022-12-20T22:03:57.801Z,8.78
2022-12-20T22:06:24.368Z,8.76
2022-12-20T22:08:50.755Z,8.76
2022-12-20T22:11:18.609Z,8.75
2022-12-20T22:13:45.896Z,8.73
2022-12-20T22:16:17.886Z,8.73
2022-12-20T22:18:47.716Z,8.70
2022-12-20T22:21:15.485Z,8.69
2022-12-20T22:23:42.530Z,8.68
2022-12-20T22:26:15.235Z,8.66
2022-12-20T22:28:49.469Z,8.65
2022-12-20T22:31:16.279Z,8.64
2022-12-20T22:33:43.100Z,8.65
2022-12-20T22:36:12.025Z,8.64
2022-12-20T22:38:38.529Z,8.62
2022-12-20T22:41:17.181Z,8.62
2022-12-20T22:43:45.052Z,8.60
2022-12-20T22:46:31.222Z,8.59
2022-12-20T22:48:58.585Z,8.59
2022-12-20T22:51:27.075Z,8.56
2022-12-20T22:53:53.602Z,8.54
2022-12-20T22:56:21.500Z,8.54
2022-12-20T22:58:48.852Z,8.53
2022-12-20T23:01:17.333Z,8.53
2022-12-20T23:03:44.637Z,8.53
2022-12-20T23:06:17.083Z,8.53
2022-12-20T23:08:43.797Z,8.52
2022-12-20T23:11:39.087Z,8.49
2022-12-20T23:14:24.396Z,8.49
2022-12-20T23:16:51.357Z,8.49
2022-12-20T23:19:18.023Z,8.48
2022-12-20T23:22:02.669Z,8.48
2022-12-20T23:24:29.029Z,8.46
2022-12-20T23:26:55.623Z,8.45
2022-12-20T23:29:22.136Z,8.45
2022-12-20T23:31:48.615Z,8.44
2022-12-20T23:34:14.970Z,8.44
2022-12-20T23:36:41.344Z,8.42
2022-12-20T23:39:08.914Z,8.39
2022-12-20T23:41:35.357Z,8.37
2022-12-20T23:44:04.396Z,8.36
2022-12-20T23:46:30.795Z,8.34
2022-12-20T23:48:57.181Z,8.28
2022-12-20T23:51:23.567Z,8.29
2022-12-20T23:53:53.064Z,8.26
2022-12-20T23:56:21.201Z,8.26
2022-12-20T23:58:53.446Z,8.26
